Time;durP1;ratioP1;P1;durP2;ratioP2;P2;SDS_P1;SDS_P2;PMS_P1;PMS_P2;Temp;Humidity;BMP_temperature;BMP_pressure;BME280_temperature;BME280_humidity;BME280_pressure;Samples;Min_cycle;Max_cycle;Signal;HPM_P1;HPM_P2
2023/12/04 00:02:10;;;;;;;7.75;2.53;;;-2.50;71.60;;;;;;5027047;28;20285;-72
2023/12/04 00:04:36;;;;;;;5.57;3.88;;;-2.50;71.50;;;;;;5011092;28;20030;-71
2023/12/04 00:07:03;;;;;;;4.78;2.10;;;-2.50;71.60;;;;;;5013550;28;20402;-75
2023/12/04 00:09:29;;;;;;;;;;;-2.50;71.50;;;;;;5016896;28;20022;-71
2023/12/04 00:11:55;;;;;;;4.70;3.58;;;-2.50;71.40;;;;;;5047439;28;19928;-75
2023/12/04 00:14:20;;;;;;;8.30;3.67;;;-2.50;71.40;;;;;;5016037;28;20042;-72
2023/12/04 00:16:47;;;;;;;4.43;1.55;;;-2.40;71.40;;;;;;5016278;28;20038;-71
2023/12/04 00:19:13;;;;;;;5.30;3.28;;;-2.40;71.30;;;;;;5016198;28;20034;-75
2023/12/04 00:21:39;;;;;;;3.70;2.72;;;-2.40;71.10;;;;;;5015344;28;20127;-75
2023/12/04 00:24:05;;;;;;;22.25;8.05;;;-2.40;71.10;;;;;;5014672;28;20554;-72
2023/12/04 00:26:31;;;;;;;10.10;5.22;;;-2.40;72.00;;;;;;5014657;28;20084;-71
2023/12/04 00:28:57;;;;;;;8.85;5.80;;;-2.40;71.30;;;;;;5015874;28;20084;-71
2023/12/04 00:31:23;;;;;;;11.00;6.68;;;-2.40;71.30;;;;;;4997672;28;20038;-75
2023/12/04 00:33:49;;;;;;;7.60;3.72;;;-2.40;71.30;;;;;;5014446;28;20034;-71
2023/12/04 00:36:15;;;;;;;10.60;6.63;;;-2.30;71.40;;;;;;5014769;28;20045;-75
2023/12/04 00:38:41;;;;;;;8.70;5.32;;;-2.40;72.10;;;;;;5014420;28;20029;-72
2023/12/04 00:41:07;;;;;;;3.72;3.00;;;-2.40;71.40;;;;;;5015002;28;20038;-75
2023/12/04 00:43:33;;;;;;;5.45;3.45;;;-2.50;71.60;;;;;;5014133;28;20514;-71
2023/12/04 00:45:59;;;;;;;4.30;2.72;;;-2.50;71.70;;;;;;5014468;28;20076;-71
2023/12/04 00:48:25;;;;;;;6.75;2.88;;;-2.50;71.80;;;;;;5014620;28;20292;-75
2023/12/04 00:50:51;;;;;;;5.95;3.35;;;-2.60;71.70;;;;;;5014809;28;20049;-71
2023/12/04 00:53:17;;;;;;;5.15;2.80;;;-2.70;71.70;;;;;;5015342;28;20092;-71
2023/12/04 00:55:43;;;;;;;6.85;3.50;;;-2.70;72.10;;;;;;5015177;28;20034;-71
2023/12/04 00:58:09;;;;;;;8.82;4.18;;;-2.70;71.80;;;;;;4997931;28;20042;-71
2023/12/04 01:00:35;;;;;;;5.82;4.03;;;-2.70;71.90;;;;;;5014496;28;20038;-71
2023/12/04 01:03:02;;;;;;;4.60;2.65;;;-2.80;71.80;;;;;;5014258;28;20037;-75
2023/12/04 01:05:28;;;;;;;6.55;4.20;;;-2.70;71.80;;;;;;5015183;28;20030;-75
2023/12/04 01:07:54;;;;;;;6.18;3.25;;;-2.70;71.70;;;;;;5015795;28;20097;-71
2023/12/04 01:10:20;;;;;;;8.25;3.53;;;-2.70;71.60;;;;;;5014852;28;20042;-71
2023/12/04 01:12:46;;;;;;;11.25;8.45;;;-2.70;71.40;;;;;;5015200;28;20054;-71
2023/12/04 01:15:12;;;;;;;10.48;5.10;;;-2.70;71.30;;;;;;5015065;28;20058;-74
2023/12/04 01:17:38;;;;;;;9.93;3.22;;;-2.70;71.20;;;;;;5013946;28;20022;-75
2023/12/04 01:20:05;;;;;;;8.15;5.95;;;-2.70;71.30;;;;;;5013958;28;20422;-72
2023/12/04 01:22:31;;;;;;;7.25;3.40;;;-2.80;71.00;;;;;;5013506;28;20065;-71
2023/12/04 01:24:57;;;;;;;2.25;1.98;;;-2.70;71.30;;;;;;5013476;28;20491;-72
2023/12/04 01:27:23;;;;;;;7.45;5.00;;;-2.70;71.40;;;;;;5013551;28;20411;-73
2023/12/04 01:29:49;;;;;;;2.65;2.00;;;-2.80;72.00;;;;;;5013547;28;20042;-75
2023/12/04 01:32:15;;;;;;;5.13;2.97;;;-2.80;71.20;;;;;;5014419;28;20376;-71
2023/12/04 01:34:41;;;;;;;9.00;2.22;;;-2.80;71.30;;;;;;5013604;28;20505;-74
2023/12/04 01:37:07;;;;;;;7.95;3.75;;;-2.80;71.40;;;;;;4997452;28;20368;-71
2023/12/04 01:39:34;;;;;;;6.07;4.03;;;-2.70;71.50;;;;;;5013497;28;20037;-75
2023/12/04 01:42:00;;;;;;;5.63;3.55;;;-2.80;71.40;;;;;;5012707;28;20093;-71
2023/12/04 01:44:27;;;;;;;6.40;3.35;;;-2.80;71.40;;;;;;5014175;28;20038;-71
2023/12/04 01:46:53;;;;;;;4.57;4.13;;;-2.80;71.40;;;;;;5013241;28;20046;-71
2023/12/04 01:49:20;;;;;;;7.20;4.25;;;-2.80;70.70;;;;;;4996934;28;20423;-71
2023/12/04 01:51:46;;;;;;;6.07;2.88;;;-2.80;71.20;;;;;;5012436;28;20084;-75
2023/12/04 01:54:13;;;;;;;18.42;4.40;;;-2.80;71.20;;;;;;5012880;28;20022;-72
2023/12/04 01:56:39;;;;;;;6.53;3.53;;;-2.90;71.30;;;;;;5012873;28;20034;-71
2023/12/04 01:59:06;;;;;;;6.45;3.80;;;-2.90;71.40;;;;;;5013302;28;20442;-71
2023/12/04 02:01:32;;;;;;;8.15;3.17;;;-2.90;70.70;;;;;;5012243;28;20068;-75
2023/12/04 02:04:01;;;;;;;5.82;3.72;;;-2.80;71.40;;;;;;5013107;28;20026;-75
2023/12/04 02:06:27;;;;;;;8.52;4.45;;;-2.80;71.30;;;;;;4996955;28;20046;-74
2023/12/04 02:08:53;;;;;;;;;;;-2.90;70.30;;;;;;5014669;28;20406;-75
2023/12/04 02:11:19;;;;;;;4.45;3.10;;;-2.90;71.00;;;;;;5045005;28;19929;-75
2023/12/04 02:13:45;;;;;;;3.97;3.30;;;-2.90;71.20;;;;;;5013828;28;20061;-75
2023/12/04 02:16:15;;;;;;;5.88;2.72;;;-2.90;71.40;;;;;;5012717;28;20038;-73
2023/12/04 02:18:41;;;;;;;9.73;4.38;;;-2.80;71.30;;;;;;5012565;28;20034;-75
2023/12/04 02:21:07;;;;;;;12.38;6.95;;;-2.90;71.30;;;;;;5011768;28;20042;-71
2023/12/04 02:23:33;;;;;;;7.07;5.03;;;-2.90;71.50;;;;;;5013637;28;20060;-75
2023/12/04 02:26:09;;;;;;;15.40;5.20;;;-2.90;71.60;;;;;;5013822;28;20042;-71
2023/12/04 02:28:37;;;;;;;22.65;8.13;;;-2.90;71.90;;;;;;5012654;28;20032;-71
2023/12/04 02:31:05;;;;;;;7.35;4.30;;;-2.90;71.80;;;;;;5010562;28;20124;-71
2023/12/04 02:33:33;;;;;;;8.43;4.53;;;-2.90;71.90;;;;;;5013690;28;20033;-75
2023/12/04 02:36:01;;;;;;;5.40;4.47;;;-2.90;71.90;;;;;;5012269;28;20124;-71
2023/12/04 02:38:28;;;;;;;3.70;3.08;;;-3.00;71.70;;;;;;5012249;28;20434;-71
2023/12/04 02:40:55;;;;;;;5.18;3.63;;;-3.00;71.60;;;;;;5012778;28;20033;-71
2023/12/04 02:43:21;;;;;;;12.93;3.17;;;-3.00;72.10;;;;;;5012083;28;20133;-71
2023/12/04 02:45:47;;;;;;;;;;;-3.00;72.10;;;;;;5012600;28;20034;-72
2023/12/04 02:48:13;;;;;;;5.65;2.65;;;-3.00;72.10;;;;;;5045455;28;19921;-74
2023/12/04 02:50:39;;;;;;;11.55;3.88;;;-3.10;72.10;;;;;;5012431;28;20437;-75
2023/12/04 02:53:05;;;;;;;7.70;5.72;;;-3.10;71.90;;;;;;5013454;28;20045;-74
2023/12/04 02:55:31;;;;;;;4.53;3.33;;;-3.20;72.00;;;;;;5011801;28;20092;-71
2023/12/04 02:57:57;;;;;;;7.07;3.67;;;-3.10;72.40;;;;;;5012414;28;20037;-71
2023/12/04 03:00:23;;;;;;;4.82;3.53;;;-3.10;72.00;;;;;;5012726;28;20033;-74
2023/12/04 03:02:49;;;;;;;4.53;3.92;;;-3.20;71.40;;;;;;5013285;28;20057;-71
2023/12/04 03:05:15;;;;;;;5.50;3.33;;;-3.20;71.50;;;;;;5011923;28;20033;-72
2023/12/04 03:07:41;;;;;;;6.10;3.03;;;-3.20;71.70;;;;;;5012164;28;20403;-74
2023/12/04 03:10:08;;;;;;;2.75;1.75;;;-3.20;71.70;;;;;;5012674;28;20076;-75
2023/12/04 03:12:34;;;;;;;5.05;3.33;;;-3.20;71.70;;;;;;5013139;28;20034;-72
2023/12/04 03:15:00;;;;;;;3.38;3.00;;;-3.20;71.40;;;;;;5012848;28;20084;-72
2023/12/04 03:17:26;;;;;;;4.32;1.90;;;-3.30;71.50;;;;;;5011799;28;20391;-71
2023/12/04 03:19:52;;;;;;;2.55;2.33;;;-3.30;71.50;;;;;;5011814;28;20034;-71
2023/12/04 03:22:18;;;;;;;8.52;3.22;;;-3.30;71.50;;;;;;5012220;28;20561;-71
2023/12/04 03:24:45;;;;;;;8.13;6.03;;;-3.30;71.60;;;;;;5012967;28;20091;-71
2023/12/04 03:27:11;;;;;;;5.05;2.92;;;-3.30;71.90;;;;;;5011836;28;20057;-71
2023/12/04 03:29:37;;;;;;;8.32;5.50;;;-3.30;72.00;;;;;;5011830;28;20021;-71
2023/12/04 03:32:03;;;;;;;36.97;4.40;;;-3.30;72.10;;;;;;5010973;28;20072;-75
2023/12/04 03:34:29;;;;;;;2.47;2.15;;;-3.30;71.30;;;;;;5011370;28;20038;-72
2023/12/04 03:36:55;;;;;;;6.53;3.65;;;-3.30;72.00;;;;;;5011518;28;20441;-71
2023/12/04 03:39:21;;;;;;;4.40;2.50;;;-3.30;71.70;;;;;;5011483;28;20579;-75
2023/12/04 03:41:48;;;;;;;4.32;2.78;;;-3.20;71.70;;;;;;5011620;28;20042;-71
2023/12/04 03:44:14;;;;;;;5.88;4.60;;;-3.20;71.40;;;;;;5012579;28;20030;-71
2023/12/04 03:46:40;;;;;;;4.03;2.33;;;-3.20;71.50;;;;;;4994844;28;20629;-71
2023/12/04 03:49:06;;;;;;;3.53;1.85;;;-3.20;71.40;;;;;;5012808;28;20030;-75
2023/12/04 03:51:32;;;;;;;11.95;3.60;;;-3.10;71.50;;;;;;5010576;28;20042;-72
2023/12/04 03:53:58;;;;;;;4.82;3.88;;;-3.20;71.40;;;;;;5011002;28;20030;-72
2023/12/04 03:56:24;;;;;;;8.48;4.22;;;-3.10;71.60;;;;;;5010979;28;20050;-71
2023/12/04 03:58:50;;;;;;;2.58;1.75;;;-3.10;71.50;;;;;;5012593;28;20402;-72
2023/12/04 04:01:16;;;;;;;15.88;5.45;;;-3.10;71.40;;;;;;5012000;28;20112;-71
2023/12/04 04:03:42;;;;;;;12.48;6.90;;;-3.00;71.30;;;;;;5011122;28;20026;-72
2023/12/04 04:06:08;;;;;;;;;;;-3.00;71.20;;;;;;5011627;28;20046;-72
2023/12/04 04:08:35;;;;;;;6.23;4.37;;;-3.00;71.00;;;;;;5012346;28;20297;-71
2023/12/04 04:11:01;;;;;;;;;;;-3.00;71.20;;;;;;5011258;28;20034;-75
2023/12/04 04:13:27;;;;;;;3.80;2.72;;;-3.00;71.20;;;;;;5010895;28;19913;-72
2023/12/04 04:15:53;;;;;;;3.10;2.22;;;-3.00;71.30;;;;;;5012346;28;20057;-75
2023/12/04 04:18:19;;;;;;;4.10;3.70;;;-3.00;71.40;;;;;;5012347;28;20442;-71
2023/12/04 04:20:45;;;;;;;4.05;3.05;;;-3.00;71.60;;;;;;5011739;28;20060;-75
2023/12/04 04:23:11;;;;;;;9.52;6.90;;;-3.10;71.70;;;;;;5010772;28;20050;-71
2023/12/04 04:25:37;;;;;;;4.22;2.83;;;-3.00;71.70;;;;;;5012161;28;20373;-75
2023/12/04 04:28:03;;;;;;;9.65;5.72;;;-3.10;71.90;;;;;;5011065;28;20039;-71
2023/12/04 04:30:29;;;;;;;;;;;-3.10;72.00;;;;;;5012072;28;20061;-75
2023/12/04 04:32:55;;;;;;;3.22;2.17;;;-3.00;72.00;;;;;;5012546;28;19924;-75
2023/12/04 04:35:21;;;;;;;4.85;3.05;;;-3.00;71.80;;;;;;4994427;28;20034;-74
2023/12/04 04:37:47;;;;;;;3.97;3.05;;;-2.90;72.00;;;;;;5011067;28;20499;-75
2023/12/04 04:40:13;;;;;;;3.38;1.48;;;-2.90;71.80;;;;;;5011459;28;20038;-75
2023/12/04 04:42:39;;;;;;;5.85;2.40;;;-2.90;71.90;;;;;;5010765;28;20038;-71
2023/12/04 04:45:06;;;;;;;2.05;1.40;;;-2.80;71.80;;;;;;5010676;28;20041;-72
2023/12/04 04:47:32;;;;;;;4.13;1.75;;;-2.90;71.70;;;;;;5012458;28;20041;-75
2023/12/04 04:49:58;;;;;;;8.80;4.57;;;-2.90;72.10;;;;;;5010635;28;20030;-72
2023/12/04 04:52:24;;;;;;;7.53;3.30;;;-2.90;72.30;;;;;;4993673;28;20136;-75
2023/12/04 04:54:50;;;;;;;7.55;4.80;;;-2.90;72.40;;;;;;5013585;28;20029;-75
2023/12/04 04:57:16;;;;;;;7.88;4.70;;;-2.90;72.20;;;;;;4998148;28;20046;-75
2023/12/04 04:59:42;;;;;;;6.38;2.92;;;-2.90;72.70;;;;;;5015593;28;20026;-71
2023/12/04 05:02:08;;;;;;;6.22;2.80;;;-2.90;72.60;;;;;;5014961;28;20435;-72
2023/12/04 05:04:34;;;;;;;3.08;2.08;;;-2.90;72.40;;;;;;4997897;28;20037;-75
2023/12/04 05:07:00;;;;;;;5.03;2.15;;;-2.90;72.70;;;;;;5014007;28;20045;-72
2023/12/04 05:09:26;;;;;;;3.28;2.33;;;-3.00;72.40;;;;;;4997674;28;20091;-75
2023/12/04 05:11:53;;;;;;;8.88;3.70;;;-3.00;72.40;;;;;;5014708;28;20038;-75
2023/12/04 05:14:19;;;;;;;5.25;3.83;;;-3.10;72.60;;;;;;5014738;28;20034;-75
2023/12/04 05:16:45;;;;;;;10.68;6.00;;;-3.00;72.80;;;;;;5013872;28;20133;-71
2023/12/04 05:19:11;;;;;;;5.28;3.33;;;-2.90;72.60;;;;;;5013857;28;20114;-71
2023/12/04 05:21:37;;;;;;;5.72;3.55;;;-2.90;72.40;;;;;;5014320;28;20072;-72
2023/12/04 05:24:03;;;;;;;3.00;2.63;;;-2.90;72.40;;;;;;5013579;28;20038;-71
2023/12/04 05:26:29;;;;;;;10.38;2.65;;;-2.90;72.40;;;;;;5014805;28;20045;-75
2023/12/04 05:28:55;;;;;;;6.28;4.50;;;-2.90;72.30;;;;;;5013614;28;20446;-75
2023/12/04 05:31:22;;;;;;;6.60;3.33;;;-3.00;72.30;;;;;;5014451;28;20045;-75
2023/12/04 05:33:48;;;;;;;4.95;2.63;;;-2.90;72.10;;;;;;5013514;28;20046;-71
2023/12/04 05:36:14;;;;;;;5.50;2.50;;;-2.90;72.20;;;;;;5013641;28;20038;-75
2023/12/04 05:38:40;;;;;;;3.67;1.90;;;-3.00;72.20;;;;;;4996846;28;20034;-75
2023/12/04 05:41:06;;;;;;;;;;;-3.10;72.40;;;;;;5013070;28;20034;-72
2023/12/04 05:43:32;;;;;;;9.27;5.55;;;-3.10;72.70;;;;;;5014289;28;20329;-74
2023/12/04 05:45:58;;;;;;;4.00;2.72;;;-3.10;72.70;;;;;;5013694;28;20030;-75
2023/12/04 05:48:24;;;;;;;4.22;2.70;;;-3.10;72.70;;;;;;5014633;28;20402;-75
2023/12/04 05:50:50;;;;;;;4.47;2.42;;;-3.00;72.80;;;;;;5013887;28;20034;-75
2023/12/04 05:53:17;;;;;;;4.88;1.95;;;-3.00;73.00;;;;;;5012887;28;20042;-75
2023/12/04 05:55:43;;;;;;;3.35;2.20;;;-3.10;72.70;;;;;;5024162;28;20056;-75
2023/12/04 05:58:09;;;;;;;11.48;3.20;;;-3.10;72.90;;;;;;5033921;28;20124;-71
2023/12/04 06:00:35;;;;;;;5.72;2.78;;;-3.20;72.90;;;;;;5032136;28;20087;-71
2023/12/04 06:03:01;;;;;;;6.10;1.67;;;-3.20;72.90;;;;;;5032840;28;20175;-71
2023/12/04 06:05:28;;;;;;;8.15;4.18;;;-3.20;73.00;;;;;;5032115;28;20072;-74
2023/12/04 06:07:54;;;;;;;7.97;3.35;;;-3.20;73.20;;;;;;5032790;28;20029;-72
2023/12/04 06:10:20;;;;;;;7.78;3.35;;;-3.10;73.30;;;;;;5032161;28;20025;-71
2023/12/04 06:12:46;;;;;;;;;;;-3.10;73.20;;;;;;5033161;28;20556;-74
2023/12/04 06:15:12;;;;;;;3.45;2.15;;;-3.10;73.20;;;;;;5033612;28;19917;-71
2023/12/04 06:17:38;;;;;;;;;;;-3.00;72.80;;;;;;5034713;28;20080;-75
2023/12/04 06:20:06;;;;;;;5.70;3.38;;;-3.00;72.70;;;;;;5032122;28;19917;-72
2023/12/04 06:22:32;;;;;;;4.50;3.50;;;-3.10;72.60;;;;;;5033240;28;20049;-75
2023/12/04 06:24:59;;;;;;;3.72;2.15;;;-3.10;73.00;;;;;;5032280;28;20029;-75
2023/12/04 06:27:25;;;;;;;9.10;4.47;;;-3.10;73.20;;;;;;5032496;28;20120;-72
2023/12/04 06:29:52;;;;;;;5.80;3.42;;;-3.20;72.80;;;;;;5033390;28;20041;-75
2023/12/04 06:32:19;;;;;;;2.45;1.60;;;-3.20;72.90;;;;;;5031668;28;20048;-75
2023/12/04 06:34:45;;;;;;;3.67;2.30;;;-3.10;72.80;;;;;;5031977;28;20048;-71
2023/12/04 06:37:13;;;;;;;4.47;2.75;;;-3.10;72.30;;;;;;5015748;28;20052;-71
2023/12/04 06:39:40;;;;;;;3.72;2.95;;;-3.10;72.50;;;;;;5032022;28;20026;-75
2023/12/04 06:42:25;;;;;;;6.13;2.88;;;-3.00;72.70;;;;;;5032421;28;20076;-71
2023/12/04 06:44:52;;;;;;;5.32;2.85;;;-3.00;71.90;;;;;;5032970;28;20041;-75
2023/12/04 06:47:22;;;;;;;4.65;1.42;;;-3.00;71.90;;;;;;5032106;28;20526;-72
2023/12/04 06:49:48;;;;;;;2.72;1.95;;;-3.00;72.40;;;;;;5032039;28;20128;-71
2023/12/04 06:52:14;;;;;;;2.15;1.58;;;-2.90;72.20;;;;;;5032228;28;20041;-71
2023/12/04 06:54:40;;;;;;;6.03;3.40;;;-2.90;72.10;;;;;;5032880;28;20037;-71
2023/12/04 06:57:06;;;;;;;4.88;2.83;;;-2.80;72.10;;;;;;5033195;28;20056;-74
2023/12/04 06:59:32;;;;;;;7.97;4.55;;;-2.70;72.00;;;;;;5031665;28;20033;-72
2023/12/04 07:01:58;;;;;;;11.43;4.82;;;-2.70;71.90;;;;;;5014538;28;20465;-71
2023/12/04 07:04:24;;;;;;;9.77;4.35;;;-2.70;71.80;;;;;;5031753;28;20036;-75
2023/12/04 07:06:50;;;;;;;12.23;3.42;;;-2.60;71.70;;;;;;5031685;28;20034;-71
2023/12/04 07:09:17;;;;;;;4.93;3.33;;;-2.60;71.40;;;;;;5032723;28;20052;-71
2023/12/04 07:11:43;;;;;;;7.13;3.92;;;-2.50;71.60;;;;;;5032199;28;20037;-71
2023/12/04 07:14:10;;;;;;;5.38;3.72;;;-2.60;70.60;;;;;;5031228;28;20029;-71
2023/12/04 07:16:55;;;;;;;8.23;6.72;;;-2.50;70.70;;;;;;5032162;28;20079;-71
2023/12/04 07:19:21;;;;;;;3.38;2.45;;;-2.50;71.10;;;;;;5031470;28;20472;-71
2023/12/04 07:21:48;;;;;;;8.63;6.43;;;-2.50;71.90;;;;;;5031996;28;20064;-75
2023/12/04 07:24:14;;;;;;;5.65;4.68;;;-2.50;71.00;;;;;;5031234;28;20069;-72
2023/12/04 07:26:40;;;;;;;5.93;2.80;;;-2.40;71.00;;;;;;5031102;28;20041;-75
2023/12/04 07:29:06;;;;;;;5.72;3.33;;;-2.40;70.80;;;;;;5032679;28;20176;-75
2023/12/04 07:31:32;;;;;;;11.60;4.40;;;-2.40;70.70;;;;;;5031948;28;20038;-72
2023/12/04 07:34:00;;;;;;;10.40;5.80;;;-2.40;70.50;;;;;;5032393;28;20029;-71
2023/12/04 07:36:27;;;;;;;3.97;2.53;;;-2.30;70.80;;;;;;5031264;28;20065;-75
2023/12/04 07:38:53;;;;;;;7.38;3.38;;;-2.30;70.50;;;;;;5032102;28;20124;-74
2023/12/04 07:41:20;;;;;;;12.35;5.05;;;-2.20;70.40;;;;;;5031904;28;20401;-71
2023/12/04 07:43:46;;;;;;;6.85;5.60;;;-2.20;69.60;;;;;;5030977;28;20033;-73
2023/12/04 07:46:13;;;;;;;6.80;4.40;;;-2.10;70.00;;;;;;5032465;28;20060;-74
2023/12/04 07:48:40;;;;;;;7.13;4.78;;;-2.10;69.80;;;;;;5031177;28;20026;-75
2023/12/04 07:51:07;;;;;;;;;;;-2.00;68.90;;;;;;5032244;28;20052;-71
2023/12/04 07:53:33;;;;;;;3.28;1.50;;;-2.00;69.40;;;;;;5014210;28;19917;-71
2023/12/04 07:56:12;;;;;;;;;;;-2.00;69.40;;;;;;5032762;28;20045;-71
2023/12/04 07:58:38;;;;;;;7.47;4.15;;;-1.90;69.20;;;;;;5032335;28;19913;-75
2023/12/04 08:01:05;;;;;;;4.72;2.90;;;-1.90;69.20;;;;;;5030229;28;20123;-71
2023/12/04 08:03:31;;;;;;;10.13;5.95;;;-1.80;68.50;;;;;;5032024;28;20033;-75
2023/12/04 08:05:58;;;;;;;7.05;2.58;;;-1.70;68.30;;;;;;5032096;28;20092;-72
2023/12/04 08:08:24;;;;;;;6.95;3.58;;;-1.70;68.70;;;;;;5030976;28;20037;-75
2023/12/04 08:10:51;;;;;;;5.93;3.15;;;-1.60;68.50;;;;;;5031366;28;20029;-75
2023/12/04 08:13:17;;;;;;;5.30;3.58;;;-1.60;67.90;;;;;;5030490;28;20513;-74
2023/12/04 08:15:44;;;;;;;;;;;-1.50;68.50;;;;;;5032523;28;20091;-74
2023/12/04 08:18:10;;;;;;;15.77;4.30;;;-1.40;68.10;;;;;;5014176;28;19925;-71
2023/12/04 08:20:36;;;;;;;3.78;2.20;;;-1.40;68.00;;;;;;5030327;28;20033;-75
2023/12/04 08:23:02;;;;;;;3.30;1.63;;;-1.30;67.90;;;;;;5032010;28;20073;-72
2023/12/04 08:25:29;;;;;;;4.18;2.28;;;-1.20;67.60;;;;;;5030693;28;20091;-74
2023/12/04 08:27:55;;;;;;;13.23;3.38;;;-1.20;67.30;;;;;;5031431;28;20033;-75
2023/12/04 08:30:21;;;;;;;7.18;3.95;;;-1.20;67.40;;;;;;5017403;28;20036;-75
2023/12/04 08:32:47;;;;;;;4.35;3.58;;;-1.10;67.30;;;;;;5036022;28;20375;-71
2023/12/04 08:35:13;;;;;;;3.85;3.05;;;-1.00;67.20;;;;;;5035594;28;20081;-73
2023/12/04 08:37:40;;;;;;;7.47;3.30;;;-1.00;66.80;;;;;;5018130;28;20029;-76
2023/12/04 08:40:08;;;;;;;8.70;3.92;;;-0.90;66.80;;;;;;5035162;28;20037;-72
2023/12/04 08:42:34;;;;;;;7.32;3.50;;;-0.80;66.10;;;;;;5034165;28;20037;-75
2023/12/04 08:45:00;;;;;;;6.60;3.38;;;-0.80;66.30;;;;;;5035337;28;20038;-71
2023/12/04 08:47:26;;;;;;;4.70;4.15;;;-0.70;66.10;;;;;;5034527;28;20091;-75
2023/12/04 08:49:52;;;;;;;5.95;3.20;;;-0.60;65.50;;;;;;5035318;28;20066;-71
2023/12/04 08:52:18;;;;;;;5.82;4.40;;;-0.60;65.20;;;;;;5033319;28;20043;-71
2023/12/04 08:54:44;;;;;;;4.80;2.75;;;-0.60;65.00;;;;;;5035050;28;20502;-71
2023/12/04 08:57:10;;;;;;;3.60;2.80;;;-0.60;64.90;;;;;;5035616;28;20382;-72
2023/12/04 08:59:36;;;;;;;6.70;4.00;;;-0.50;65.00;;;;;;5034168;28;20437;-74
2023/12/04 09:04:47;;;;;;;4.32;2.65;;;-0.30;64.50;;;;;;5034969;28;20039;-75
2023/12/04 09:07:14;;;;;;;3.15;1.60;;;-0.30;64.20;;;;;;5035435;28;20375;-71
2023/12/04 09:09:40;;;;;;;4.10;2.42;;;-0.40;64.10;;;;;;5017427;28;20116;-71
2023/12/04 09:12:08;;;;;;;10.80;3.60;;;-0.40;64.40;;;;;;5033125;28;20068;-71
2023/12/04 09:14:35;;;;;;;8.90;4.05;;;-0.50;64.00;;;;;;5034877;28;20061;-75
2023/12/04 09:17:01;;;;;;;;;;;-0.40;63.90;;;;;;5035718;28;20068;-75
2023/12/04 09:19:27;;;;;;;8.20;2.58;;;-0.40;64.90;;;;;;5033886;28;20339;-75
2023/12/04 09:21:53;;;;;;;12.20;4.93;;;-0.30;64.90;;;;;;5033839;28;20388;-72
2023/12/04 09:24:19;;;;;;;4.95;3.50;;;-0.30;64.70;;;;;;5033532;28;20040;-75
2023/12/04 09:26:45;;;;;;;4.18;2.28;;;-0.20;64.80;;;;;;5017075;28;20041;-71
2023/12/04 09:29:12;;;;;;;12.82;4.82;;;-0.20;64.70;;;;;;5035000;28;20060;-75
2023/12/04 09:31:38;;;;;;;7.05;4.82;;;-0.10;64.00;;;;;;5034055;28;20069;-71
2023/12/04 09:34:05;;;;;;;;;;;-0.10;63.70;;;;;;5017341;28;20390;-71
2023/12/04 09:36:31;;;;;;;11.40;4.28;;;0.00;63.90;;;;;;5033363;28;20397;-72
2023/12/04 09:38:57;;;;;;;6.75;3.40;;;0.10;64.00;;;;;;5033257;28;20041;-74
2023/12/04 09:41:23;;;;;;;8.30;3.67;;;0.20;64.00;;;;;;5033228;28;20056;-75
2023/12/04 09:43:50;;;;;;;4.63;2.20;;;0.20;63.80;;;;;;5032815;28;20036;-75
2023/12/04 09:46:17;;;;;;;6.80;3.22;;;0.20;63.60;;;;;;5032861;28;20048;-72
2023/12/04 09:48:44;;;;;;;4.03;2.35;;;0.20;63.30;;;;;;5033279;28;20030;-71
2023/12/04 09:51:10;;;;;;;3.45;1.77;;;0.30;63.30;;;;;;5015862;28;20545;-75
2023/12/04 09:53:38;;;;;;;6.15;2.88;;;0.40;63.50;;;;;;5032723;28;20376;-71
2023/12/04 09:56:04;;;;;;;6.72;3.95;;;0.40;63.10;;;;;;5032652;28;20038;-75
2023/12/04 09:58:32;;;;;;;2.80;1.98;;;0.40;62.90;;;;;;5016341;28;20384;-75
2023/12/04 10:01:01;;;;;;;7.88;3.92;;;0.50;63.70;;;;;;5015725;28;20121;-75
2023/12/04 10:03:29;;;;;;;4.47;3.25;;;0.50;63.30;;;;;;5032772;28;20067;-74
2023/12/04 10:05:56;;;;;;;12.25;8.23;;;0.60;63.00;;;;;;5032777;28;20028;-71
2023/12/04 10:08:22;;;;;;;10.25;4.57;;;0.60;62.90;;;;;;5033954;28;20037;-73
2023/12/04 10:10:48;;;;;;;9.73;3.50;;;0.70;63.20;;;;;;5032152;28;20034;-74
2023/12/04 10:13:14;;;;;;;4.85;2.58;;;0.80;62.90;;;;;;5015780;28;20076;-71
2023/12/04 10:16:06;;;;;;;7.72;3.80;;;0.80;62.60;;;;;;5032465;28;20083;-71
2023/12/04 10:18:34;;;;;;;8.93;3.97;;;0.90;61.90;;;;;;5033754;28;20069;-75
2023/12/04 10:21:02;;;;;;;7.63;4.20;;;0.90;62.10;;;;;;5014921;28;20103;-72
2023/12/04 10:23:47;;;;;;;6.40;3.20;;;0.90;61.50;;;;;;5032342;28;20052;-75
2023/12/04 10:26:31;;;;;;;8.63;4.45;;;0.90;62.10;;;;;;5033579;28;20164;-74
2023/12/04 10:29:16;;;;;;;9.95;7.20;;;0.90;62.30;;;;;;5033321;28;20099;-74
2023/12/04 10:31:42;;;;;;;10.02;5.22;;;1.00;62.20;;;;;;5031667;28;20421;-74
2023/12/04 10:34:11;;;;;;;9.32;4.60;;;1.00;62.40;;;;;;5033544;28;20030;-74
2023/12/04 10:36:38;;;;;;;13.00;4.70;;;1.10;62.10;;;;;;5031939;28;20115;-74
2023/12/04 10:39:04;;;;;;;8.27;5.07;;;1.00;61.00;;;;;;5033251;28;20033;-74
2023/12/04 10:41:31;;;;;;;11.88;4.82;;;1.00;61.60;;;;;;5031477;28;20040;-71
2023/12/04 10:43:58;;;;;;;7.60;4.22;;;1.00;61.90;;;;;;5032015;28;20037;-71
2023/12/04 10:46:43;;;;;;;7.07;3.45;;;1.10;62.80;;;;;;5015574;28;20075;-75
2023/12/04 10:49:11;;;;;;;9.15;5.70;;;1.10;60.90;;;;;;5032032;28;20456;-75
2023/12/04 10:51:38;;;;;;;9.40;4.28;;;1.10;61.50;;;;;;5030092;28;20037;-74
2023/12/04 10:54:05;;;;;;;5.05;3.33;;;1.20;61.40;;;;;;5031738;28;20091;-71
2023/12/04 10:56:52;;;;;;;6.78;3.55;;;1.30;61.40;;;;;;5015279;28;20033;-71
2023/12/04 10:59:27;;;;;;;4.93;3.22;;;1.20;61.10;;;;;;5015427;28;20064;-74
2023/12/04 11:01:55;;;;;;;8.60;4.22;;;1.20;61.30;;;;;;5032517;28;20041;-72
2023/12/04 11:04:26;;;;;;;10.27;5.80;;;1.20;61.10;;;;;;5015123;28;20026;-71
2023/12/04 11:06:54;;;;;;;6.95;5.00;;;1.20;61.00;;;;;;5031804;28;20049;-72
2023/12/04 11:09:26;;;;;;;3.35;2.05;;;1.20;60.80;;;;;;5031834;28;20109;-75
2023/12/04 11:12:00;;;;;;;6.10;3.55;;;1.20;61.20;;;;;;5031120;28;20128;-75
2023/12/04 11:14:32;;;;;;;8.93;4.47;;;1.30;61.10;;;;;;5031318;28;20021;-71
2023/12/04 11:17:06;;;;;;;7.97;4.50;;;1.40;60.90;;;;;;5031468;28;20033;-72
2023/12/04 11:20:28;;;;;;;5.53;3.00;;;1.40;60.60;;;;;;5031624;28;20276;-75
2023/12/04 11:22:56;;;;;;;3.53;2.50;;;1.50;60.50;;;;;;5031825;28;20065;-75
2023/12/04 11:25:24;;;;;;;10.02;4.43;;;1.50;60.10;;;;;;5031272;28;20214;-74
2023/12/04 11:28:11;;;;;;;8.68;5.13;;;1.60;60.00;;;;;;5031695;28;20049;-71
2023/12/04 11:30:37;;;;;;;6.22;3.92;;;1.50;60.40;;;;;;5030314;28;20082;-71
2023/12/04 11:33:05;;;;;;;8.93;4.82;;;1.40;59.80;;;;;;5031132;28;20477;-71
2023/12/04 11:35:34;;;;;;;10.80;4.55;;;1.40;60.90;;;;;;5031134;28;20040;-71
2023/12/04 11:38:00;;;;;;;9.65;4.80;;;1.30;60.30;;;;;;5031431;28;20033;-74
2023/12/04 11:40:27;;;;;;;6.80;5.32;;;1.20;61.40;;;;;;5031827;28;20041;-71
2023/12/04 11:42:53;;;;;;;10.55;7.43;;;1.20;61.20;;;;;;5014607;28;20044;-74
2023/12/04 11:45:20;;;;;;;9.80;4.43;;;1.20;61.10;;;;;;5031148;28;20490;-74
2023/12/04 11:48:05;;;;;;;7.80;3.67;;;1.20;61.10;;;;;;5031294;28;20041;-74
2023/12/04 11:50:33;;;;;;;7.70;3.72;;;1.30;61.50;;;;;;5031952;28;20433;-72
2023/12/04 11:53:03;;;;;;;9.05;5.63;;;1.20;61.30;;;;;;5030933;28;20562;-71
2023/12/04 11:55:29;;;;;;;13.15;6.28;;;1.30;61.30;;;;;;5031020;28;20422;-71
2023/12/04 11:57:57;;;;;;;7.05;3.40;;;1.40;61.00;;;;;;5031256;28;20482;-74
2023/12/04 12:00:25;;;;;;;10.85;5.05;;;1.20;60.60;;;;;;5031946;28;20103;-71
2023/12/04 12:03:10;;;;;;;7.28;4.00;;;1.10;60.50;;;;;;5031459;28;20042;-71
2023/12/04 12:05:38;;;;;;;4.20;2.35;;;1.20;60.80;;;;;;5035084;28;20038;-71
2023/12/04 12:08:06;;;;;;;14.98;4.63;;;1.20;60.90;;;;;;5034922;28;20034;-75
2023/12/04 12:10:34;;;;;;;9.85;5.30;;;1.20;61.00;;;;;;5017863;28;20503;-75
2023/12/04 12:13:01;;;;;;;5.53;3.53;;;1.10;61.30;;;;;;5018435;28;20057;-75
2023/12/04 12:15:27;;;;;;;8.85;5.13;;;1.10;61.60;;;;;;5018296;28;20044;-74
2023/12/04 12:17:53;;;;;;;5.45;2.72;;;1.20;61.30;;;;;;5036543;28;20084;-72
2023/12/04 12:20:20;;;;;;;7.78;5.13;;;1.10;61.40;;;;;;5034327;28;20399;-71
2023/12/04 12:22:49;;;;;;;6.80;3.10;;;1.00;61.70;;;;;;5034191;28;20759;-75
2023/12/04 12:25:15;;;;;;;6.80;4.07;;;0.90;62.70;;;;;;5035862;28;20033;-71
2023/12/04 12:27:42;;;;;;;5.28;3.65;;;0.90;63.00;;;;;;5034718;28;20041;-75
2023/12/04 12:30:09;;;;;;;12.52;5.85;;;0.90;62.80;;;;;;5035362;28;20025;-75
2023/12/04 12:32:35;;;;;;;;;;;0.90;62.90;;;;;;5036246;28;20090;-75
2023/12/04 12:35:02;;;;;;;5.03;3.67;;;0.80;62.80;;;;;;5035604;28;19959;-75
2023/12/04 12:37:29;;;;;;;11.15;5.03;;;0.90;62.00;;;;;;5034649;28;20148;-75
2023/12/04 12:39:57;;;;;;;6.35;4.50;;;0.80;62.80;;;;;;5034407;28;20026;-75
2023/12/04 12:42:43;;;;;;;13.70;4.57;;;0.80;62.90;;;;;;5033678;28;20391;-71
2023/12/04 12:45:12;;;;;;;11.00;6.28;;;0.70;63.20;;;;;;5034488;28;20025;-75
2023/12/04 12:47:42;;;;;;;6.05;3.80;;;0.80;62.80;;;;;;5034384;28;20152;-72
2023/12/04 12:50:10;;;;;;;9.30;5.22;;;0.90;62.70;;;;;;5035249;28;20383;-71
2023/12/04 12:52:37;;;;;;;12.18;5.07;;;1.00;62.70;;;;;;5034159;28;20045;-71
2023/12/04 12:55:04;;;;;;;6.40;4.38;;;1.10;62.80;;;;;;5035415;28;20064;-71
2023/12/04 12:57:30;;;;;;;12.15;5.53;;;1.20;61.90;;;;;;5017763;28;20037;-75